Time;durP1;ratioP1;P1;durP2;ratioP2;P2;SDS_P1;SDS_P2;PMS_P1;PMS_P2;Temp;Humidity;BMP_temperature;BMP_pressure;BME280_temperature;BME280_humidity;BME280_pressure;Samples;Min_cycle;Max_cycle;Signal;HPM_P1;HPM_P2
2022/12/20 00:01:24;;;;;;;2.40;1.20;;;11.50;99.90;;;;;;5032796;28;20399;-76
2022/12/20 00:03:51;;;;;;;1.43;1.00;;;11.40;99.90;;;;;;5032699;28;20187;-76
2022/12/20 00:06:17;;;;;;;1.50;1.00;;;11.50;99.90;;;;;;5050858;28;20405;-76
2022/12/20 00:08:44;;;;;;;2.20;1.83;;;11.50;99.90;;;;;;5055991;28;20456;-76
2022/12/20 00:11:10;;;;;;;2.10;1.90;;;11.50;99.90;;;;;;5061650;28;20651;-76
2022/12/20 00:13:36;;;;;;;5.40;1.70;;;11.50;99.90;;;;;;5072256;28;20405;-76
2022/12/20 00:16:10;;;;;;;1.67;1.37;;;11.50;99.90;;;;;;5070756;28;20547;-76
2022/12/20 00:18:37;;;;;;;3.77;2.00;;;11.50;99.90;;;;;;5070994;28;20844;-76
2022/12/20 00:21:05;;;;;;;4.03;1.37;;;11.60;99.90;;;;;;5072264;28;20436;-76
2022/12/20 00:23:31;;;;;;;3.07;1.63;;;11.60;99.90;;;;;;5072143;28;20420;-77
2022/12/20 00:26:08;;;;;;;2.17;1.77;;;11.70;99.90;;;;;;5071899;28;20435;-76
2022/12/20 00:28:35;;;;;;;2.80;1.60;;;11.60;99.90;;;;;;5071358;28;20550;-77
2022/12/20 00:31:01;;;;;;;1.50;1.17;;;11.60;99.90;;;;;;5070838;28;20412;-76
2022/12/20 00:33:26;;;;;;;5.97;2.30;;;11.50;99.90;;;;;;5071968;28;20484;-76
2022/12/20 00:35:55;;;;;;;3.00;1.47;;;11.60;99.90;;;;;;5071786;28;20439;-76
2022/12/20 00:38:21;;;;;;;2.47;1.50;;;11.70;99.90;;;;;;5070786;28;20547;-76
2022/12/20 00:40:47;;;;;;;1.90;1.40;;;11.60;99.90;;;;;;5070694;28;20443;-76
2022/12/20 00:43:12;;;;;;;2.50;2.30;;;11.60;99.90;;;;;;5072066;28;20413;-76
2022/12/20 00:45:38;;;;;;;5.63;1.70;;;11.60;99.90;;;;;;5051509;28;20285;-76
2022/12/20 00:48:04;;;;;;;2.17;1.50;;;11.60;99.90;;;;;;5051859;28;20280;-76
2022/12/20 00:50:30;;;;;;;2.70;2.43;;;11.70;99.90;;;;;;5051894;28;20175;-76
2022/12/20 00:52:55;;;;;;;1.90;1.67;;;11.70;99.90;;;;;;5051797;28;20416;-76
2022/12/20 00:55:21;;;;;;;1.90;1.27;;;11.70;99.90;;;;;;5050260;28;20195;-76
2022/12/20 00:57:46;;;;;;;3.90;1.70;;;11.70;99.90;;;;;;5052047;28;20173;-76
2022/12/20 01:00:12;;;;;;;2.27;1.77;;;11.70;99.90;;;;;;5051950;28;20171;-76
2022/12/20 01:02:38;;;;;;;2.00;1.60;;;11.70;99.90;;;;;;5051916;28;20811;-76
2022/12/20 01:05:03;;;;;;;2.43;1.67;;;11.80;99.90;;;;;;5051351;28;20437;-76
2022/12/20 01:07:29;;;;;;;5.10;1.73;;;11.80;99.90;;;;;;5051726;28;20189;-76
2022/12/20 01:09:54;;;;;;;3.30;1.73;;;11.80;99.90;;;;;;5051740;28;20301;-76
2022/12/20 01:12:20;;;;;;;3.63;1.43;;;11.80;99.90;;;;;;5051630;28;20169;-76
2022/12/20 01:14:46;;;;;;;2.53;1.50;;;11.90;99.90;;;;;;5051404;28;20186;-76
2022/12/20 01:17:11;;;;;;;4.17;1.70;;;11.90;99.90;;;;;;5051609;28;20268;-76
2022/12/20 01:19:37;;;;;;;3.20;1.60;;;11.90;99.90;;;;;;5051961;28;20174;-77
2022/12/20 01:22:02;;;;;;;1.80;1.40;;;11.90;99.90;;;;;;5063574;28;20250;-76
2022/12/20 01:24:28;;;;;;;2.90;1.37;;;11.90;99.90;;;;;;5051075;28;20223;-76
2022/12/20 01:26:53;;;;;;;2.00;1.60;;;11.90;99.90;;;;;;5050251;28;20187;-76
2022/12/20 01:29:19;;;;;;;2.00;1.63;;;11.90;99.90;;;;;;5051618;28;20190;-76
2022/12/20 01:31:44;;;;;;;3.93;1.83;;;11.90;99.90;;;;;;5051516;28;20221;-76
2022/12/20 01:34:10;;;;;;;2.37;1.70;;;11.90;99.90;;;;;;5050089;28;20713;-77
2022/12/20 01:36:39;;;;;;;3.23;1.70;;;11.90;99.90;;;;;;5049951;28;20570;-76
2022/12/20 01:39:14;;;;;;;2.43;1.77;;;11.90;99.90;;;;;;5051459;28;20413;-76
2022/12/20 01:41:41;;;;;;;2.67;2.10;;;11.90;99.90;;;;;;5053969;28;20437;-76
2022/12/20 01:44:26;;;;;;;3.07;1.57;;;11.90;99.90;;;;;;5055073;28;20421;-76
2022/12/20 01:46:53;;;;;;;1.70;1.40;;;11.90;99.90;;;;;;5050931;28;20515;-76
2022/12/20 01:49:43;;;;;;;2.53;1.20;;;11.90;99.90;;;;;;5054913;28;20405;-76
2022/12/20 01:52:19;;;;;;;2.40;1.70;;;11.90;99.90;;;;;;5055054;28;20496;-76
2022/12/20 01:54:47;;;;;;;1.90;1.70;;;11.90;99.90;;;;;;5054699;28;20440;-76
2022/12/20 01:57:21;;;;;;;4.23;2.17;;;11.80;99.90;;;;;;5054912;28;20409;-76
2022/12/20 01:59:49;;;;;;;3.00;1.60;;;11.80;99.90;;;;;;5053642;28;20420;-77
2022/12/20 02:02:15;;;;;;;3.37;2.00;;;11.80;99.90;;;;;;5054856;28;20424;-77
2022/12/20 02:04:40;;;;;;;1.60;1.30;;;11.80;99.90;;;;;;5049033;28;20430;-77
2022/12/20 02:07:10;;;;;;;2.90;1.87;;;11.80;99.90;;;;;;5034759;28;20191;-77
2022/12/20 02:09:37;;;;;;;2.90;2.00;;;11.80;99.90;;;;;;5034797;28;20259;-76
2022/12/20 02:12:11;;;;;;;3.10;1.70;;;11.70;99.90;;;;;;5034485;28;20398;-76
2022/12/20 02:14:51;;;;;;;2.73;1.93;;;11.70;99.90;;;;;;5034333;28;20426;-76
2022/12/20 02:17:22;;;;;;;3.33;1.83;;;11.60;99.90;;;;;;5034578;28;20926;-76
2022/12/20 02:20:27;;;;;;;2.40;1.63;;;11.60;99.90;;;;;;5034570;28;20411;-76
2022/12/20 02:23:23;;;;;;;2.20;1.97;;;11.50;99.90;;;;;;5034419;28;20405;-76
2022/12/20 02:26:15;;;;;;;3.20;1.80;;;11.50;99.90;;;;;;5042078;28;20519;-77
2022/12/20 02:29:08;;;;;;;4.07;2.00;;;11.50;99.90;;;;;;5056353;28;20995;-76
2022/12/20 02:31:43;;;;;;;3.67;1.93;;;11.50;99.90;;;;;;5074364;28;20408;-76
2022/12/20 02:34:10;;;;;;;3.70;2.23;;;11.50;99.90;;;;;;5074009;28;20426;-77
2022/12/20 02:36:36;;;;;;;4.27;2.00;;;11.60;99.90;;;;;;5073960;28;20400;-76
2022/12/20 02:39:02;;;;;;;2.57;1.67;;;11.60;99.90;;;;;;5074228;28;20404;-76
2022/12/20 02:41:42;;;;;;;2.70;2.10;;;11.70;99.90;;;;;;5072836;28;20198;-77
2022/12/20 02:46:59;;;;;;;5.33;2.17;;;11.70;99.90;;;;;;5073976;28;20447;-77
2022/12/20 02:49:29;;;;;;;4.43;1.90;;;11.70;99.90;;;;;;5074106;28;20413;-76
2022/12/20 02:51:56;;;;;;;4.50;2.50;;;11.70;99.90;;;;;;5071918;28;20409;-76
2022/12/20 02:54:22;;;;;;;4.70;2.20;;;11.70;99.90;;;;;;5073552;28;20431;-76
2022/12/20 02:56:54;;;;;;;2.37;1.90;;;11.80;99.90;;;;;;5072533;28;20441;-76
2022/12/20 02:59:30;;;;;;;2.43;1.50;;;11.70;99.90;;;;;;5072575;28;20440;-76
2022/12/20 03:01:56;;;;;;;11.17;2.33;;;11.70;99.90;;;;;;5073782;28;20408;-76
2022/12/20 03:04:31;;;;;;;3.07;1.70;;;11.80;99.90;;;;;;5070373;28;20447;-77
2022/12/20 03:07:06;;;;;;;2.70;2.03;;;11.70;99.90;;;;;;5053545;28;20495;-76
2022/12/20 03:09:33;;;;;;;1.87;1.57;;;11.70;99.90;;;;;;5053670;28;20407;-76
2022/12/20 03:11:59;;;;;;;2.80;1.87;;;11.70;99.90;;;;;;5053593;28;20484;-77
2022/12/20 03:14:25;;;;;;;3.03;1.90;;;11.70;99.90;;;;;;5053168;28;20455;-76
2022/12/20 03:16:51;;;;;;;2.80;1.53;;;11.70;99.90;;;;;;5053444;28;20170;-77
2022/12/20 03:19:17;;;;;;;2.50;1.80;;;11.80;99.90;;;;;;5053363;28;20198;-76
2022/12/20 03:21:43;;;;;;;2.60;1.70;;;11.70;99.90;;;;;;5053246;28;20451;-76
2022/12/20 03:24:10;;;;;;;2.60;2.27;;;11.70;99.90;;;;;;5051886;28;20199;-77
2022/12/20 03:26:36;;;;;;;3.30;2.20;;;11.70;99.90;;;;;;5051635;28;20413;-76
2022/12/20 03:29:02;;;;;;;3.20;1.80;;;11.70;99.90;;;;;;5053252;28;20414;-76
2022/12/20 03:31:28;;;;;;;3.47;1.80;;;11.70;99.90;;;;;;5053265;28;20474;-77
2022/12/20 03:33:54;;;;;;;2.00;1.57;;;11.70;99.90;;;;;;5053136;28;20512;-77
2022/12/20 03:36:22;;;;;;;2.03;1.83;;;11.80;99.90;;;;;;5052800;28;20171;-77
2022/12/20 03:38:48;;;;;;;2.27;2.00;;;11.80;99.90;;;;;;5065222;28;20423;-77
2022/12/20 03:41:14;;;;;;;3.00;1.97;;;11.70;99.90;;;;;;5052928;28;20444;-77
2022/12/20 03:43:40;;;;;;;3.77;2.10;;;11.70;99.90;;;;;;5052811;28;20441;-77
2022/12/20 03:46:06;;;;;;;5.90;2.63;;;11.70;99.90;;;;;;5052600;28;20250;-77
2022/12/20 03:48:31;;;;;;;5.27;2.43;;;11.60;99.90;;;;;;5052848;28;20210;-77
2022/12/20 03:50:57;;;;;;;6.63;3.07;;;11.60;99.90;;;;;;5052746;28;20405;-77
2022/12/20 03:53:22;;;;;;;3.50;3.20;;;11.50;99.90;;;;;;5052806;28;20177;-76
2022/12/20 03:55:48;;;;;;;3.80;2.47;;;11.50;99.90;;;;;;5052335;28;20270;-77
2022/12/20 03:58:13;;;;;;;4.40;2.63;;;11.50;99.90;;;;;;5052685;28;20213;-77
2022/12/20 04:00:39;;;;;;;5.50;2.63;;;11.50;99.90;;;;;;5052574;28;20243;-76
2022/12/20 04:03:04;;;;;;;3.97;2.47;;;11.40;99.90;;;;;;5050419;28;20174;-76
2022/12/20 04:05:30;;;;;;;5.53;2.33;;;11.40;99.90;;;;;;5038695;28;20207;-76
2022/12/20 04:07:55;;;;;;;3.70;2.20;;;11.30;99.90;;;;;;5032513;28;20727;-76
2022/12/20 04:10:21;;;;;;;3.00;2.53;;;11.30;99.90;;;;;;5032519;28;20172;-76
2022/12/20 04:12:46;;;;;;;3.10;2.37;;;11.30;99.90;;;;;;5032514;28;20225;-76
2022/12/20 04:15:12;;;;;;;5.40;2.00;;;11.20;99.90;;;;;;5032081;28;20192;-76
2022/12/20 04:17:37;;;;;;;3.73;2.30;;;11.20;99.90;;;;;;5032412;28;20172;-76
2022/12/20 04:20:17;;;;;;;3.03;2.70;;;11.20;99.90;;;;;;5031221;28;20178;-76
2022/12/20 04:22:45;;;;;;;2.33;2.13;;;11.10;99.90;;;;;;5032296;28;20164;-76
2022/12/20 04:25:10;;;;;;;9.97;2.50;;;11.20;99.90;;;;;;5031810;28;20899;-76
2022/12/20 04:27:36;;;;;;;4.30;2.57;;;11.20;99.90;;;;;;5032214;28;20516;-76
2022/12/20 04:30:01;;;;;;;5.37;2.30;;;11.10;99.90;;;;;;5032294;28;20163;-76
2022/12/20 04:32:27;;;;;;;4.00;2.43;;;11.10;99.90;;;;;;5032235;28;20168;-76
2022/12/20 04:34:52;;;;;;;4.37;2.23;;;11.00;99.90;;;;;;5031801;28;20603;-76
2022/12/20 04:37:18;;;;;;;3.63;2.43;;;11.00;99.90;;;;;;5032127;28;20172;-76
2022/12/20 04:39:43;;;;;;;5.40;2.50;;;10.90;99.90;;;;;;5032193;28;20534;-76
2022/12/20 04:42:09;;;;;;;5.30;2.23;;;10.90;99.90;;;;;;5031932;28;20274;-76
2022/12/20 04:44:34;;;;;;;3.37;2.40;;;10.90;99.90;;;;;;5042468;28;20212;-76
2022/12/20 04:47:00;;;;;;;5.10;2.33;;;10.90;99.90;;;;;;5062129;28;20204;-76
2022/12/20 04:49:25;;;;;;;6.30;3.00;;;10.90;99.90;;;;;;5071858;28;20520;-76
2022/12/20 04:51:51;;;;;;;6.23;3.43;;;10.90;99.90;;;;;;5071857;28;20177;-76
2022/12/20 04:54:16;;;;;;;8.00;3.37;;;10.90;99.90;;;;;;5071486;28;20686;-76
2022/12/20 04:56:42;;;;;;;5.53;2.97;;;10.90;99.90;;;;;;5070824;28;20691;-76
2022/12/20 04:59:07;;;;;;;3.37;2.30;;;10.80;99.90;;;;;;5071920;28;20169;-76
2022/12/20 05:01:33;;;;;;;2.77;2.23;;;10.80;99.90;;;;;;5070564;28;20185;-76
2022/12/20 05:03:58;;;;;;;5.33;2.27;;;10.70;99.90;;;;;;5071701;28;20194;-76
2022/12/20 05:06:24;;;;;;;4.53;2.97;;;10.70;99.90;;;;;;5051683;28;20507;-76
2022/12/20 05:08:50;;;;;;;5.17;2.90;;;10.70;99.90;;;;;;5050455;28;20199;-76
2022/12/20 05:11:15;;;;;;;3.10;2.80;;;10.60;99.90;;;;;;5051509;28;20640;-76
2022/12/20 05:13:41;;;;;;;7.13;2.90;;;10.60;99.90;;;;;;5050947;28;20164;-76
2022/12/20 05:16:07;;;;;;;3.23;2.70;;;10.60;99.90;;;;;;5054970;28;20221;-76
2022/12/20 05:18:32;;;;;;;6.00;3.37;;;10.70;99.90;;;;;;5055841;28;20215;-76
2022/12/20 05:26:31;;;;;;;6.50;2.20;;;10.70;99.90;;;;;;5055707;28;20467;-76
2022/12/20 05:28:57;;;;;;;3.13;2.53;;;10.70;99.90;;;;;;5055448;28;20461;-76
2022/12/20 05:31:22;;;;;;;3.60;2.93;;;10.70;99.90;;;;;;5055500;28;20413;-76
2022/12/20 05:33:48;;;;;;;4.07;2.43;;;10.70;99.90;;;;;;5055349;28;20562;-76
2022/12/20 05:36:13;;;;;;;4.50;2.40;;;10.70;99.90;;;;;;5055192;28;20171;-76
2022/12/20 05:38:39;;;;;;;3.10;1.80;;;10.70;99.90;;;;;;5055402;28;20202;-76
2022/12/20 05:41:05;;;;;;;3.00;2.40;;;10.70;99.90;;;;;;5053976;28;20186;-76
2022/12/20 05:43:31;;;;;;;3.30;1.80;;;10.60;99.90;;;;;;5055212;28;20257;-76
2022/12/20 05:45:57;;;;;;;3.27;2.43;;;10.60;99.90;;;;;;5054962;28;20974;-76
2022/12/20 05:48:22;;;;;;;2.83;2.53;;;10.70;99.90;;;;;;5053851;28;20868;-76
2022/12/20 05:50:48;;;;;;;9.00;2.63;;;10.60;99.90;;;;;;5055203;28;20888;-77
2022/12/20 05:53:15;;;;;;;6.10;2.50;;;10.70;99.90;;;;;;5055054;28;20213;-76
2022/12/20 05:55:46;;;;;;;3.90;2.70;;;10.70;99.90;;;;;;5056682;28;20198;-76
2022/12/20 05:58:12;;;;;;;3.30;2.30;;;10.80;99.90;;;;;;5063662;28;20793;-76
2022/12/20 06:00:39;;;;;;;3.63;2.60;;;10.80;99.90;;;;;;5075201;28;20902;-76
2022/12/20 06:03:05;;;;;;;2.90;2.60;;;10.70;99.90;;;;;;5074933;28;20447;-76
2022/12/20 06:05:30;;;;;;;3.97;3.13;;;10.70;99.90;;;;;;5062160;28;21000;-76
2022/12/20 06:07:56;;;;;;;2.97;1.70;;;10.80;99.90;;;;;;5053476;28;20204;-77
2022/12/20 06:10:23;;;;;;;5.27;2.87;;;10.80;99.90;;;;;;5053671;28;20184;-76
2022/12/20 06:12:49;;;;;;;4.60;2.57;;;10.80;99.90;;;;;;5054792;28;20405;-76
2022/12/20 06:15:14;;;;;;;3.33;3.00;;;10.80;99.90;;;;;;5054416;28;20514;-76
2022/12/20 06:17:40;;;;;;;2.90;2.27;;;10.80;99.90;;;;;;5054719;28;20201;-76
2022/12/20 06:20:06;;;;;;;4.30;2.40;;;10.80;99.90;;;;;;5054528;28;20179;-76
2022/12/20 06:22:32;;;;;;;5.07;2.60;;;10.80;99.90;;;;;;5054630;28;20171;-76
2022/12/20 06:24:57;;;;;;;5.33;2.37;;;10.80;99.90;;;;;;5054114;28;20436;-76
2022/12/20 06:27:23;;;;;;;2.93;2.63;;;10.80;99.90;;;;;;5053362;28;20190;-76
2022/12/20 06:29:53;;;;;;;4.70;2.83;;;10.90;99.90;;;;;;5054479;28;20261;-76
2022/12/20 06:32:18;;;;;;;3.87;2.43;;;10.90;99.90;;;;;;5054309;28;20170;-76
2022/12/20 06:34:44;;;;;;;3.80;2.10;;;10.90;99.90;;;;;;5053907;28;20421;-76
2022/12/20 06:37:09;;;;;;;6.37;2.97;;;11.00;99.90;;;;;;5054235;28;20398;-77
2022/12/20 06:39:35;;;;;;;2.90;2.30;;;11.10;99.90;;;;;;5054255;28;20179;-76
2022/12/20 06:42:01;;;;;;;4.73;2.60;;;11.10;99.90;;;;;;5053934;28;20187;-76
2022/12/20 06:44:26;;;;;;;3.47;2.10;;;11.10;99.90;;;;;;5052548;28;20536;-76
2022/12/20 06:46:51;;;;;;;4.47;2.10;;;11.20;99.90;;;;;;5053984;28;20603;-76
2022/12/20 06:49:17;;;;;;;2.40;2.20;;;11.20;99.90;;;;;;5052672;28;20254;-76
2022/12/20 06:51:43;;;;;;;2.00;1.80;;;11.30;99.90;;;;;;5054048;28;20159;-76
2022/12/20 06:54:08;;;;;;;7.30;2.20;;;11.30;99.90;;;;;;5053721;28;20182;-76
2022/12/20 06:56:34;;;;;;;2.00;1.60;;;11.30;99.90;;;;;;5053631;28;20167;-76
2022/12/20 06:58:59;;;;;;;2.30;1.63;;;11.30;99.90;;;;;;5053673;28;20706;-76
2022/12/20 07:01:25;;;;;;;6.30;2.67;;;11.40;99.90;;;;;;5053747;28;20167;-76
2022/12/20 07:03:50;;;;;;;4.60;2.30;;;11.30;99.90;;;;;;5052238;28;20191;-76
2022/12/20 07:06:16;;;;;;;4.40;2.00;;;11.10;99.90;;;;;;5035861;28;20175;-76
2022/12/20 07:08:41;;;;;;;4.70;2.27;;;10.90;99.90;;;;;;5061530;28;20201;-76
2022/12/20 07:11:07;;;;;;;8.10;2.10;;;10.70;99.90;;;;;;5053950;28;20178;-76
2022/12/20 07:13:33;;;;;;;2.70;2.30;;;10.60;99.90;;;;;;5052278;28;20166;-76
2022/12/20 07:16:03;;;;;;;3.60;3.13;;;10.50;99.90;;;;;;5053178;28;20411;-76
2022/12/20 07:18:29;;;;;;;8.87;3.20;;;10.40;99.90;;;;;;5053379;28;20167;-76
2022/12/20 07:20:59;;;;;;;3.93;3.50;;;10.40;99.90;;;;;;5053469;28;20401;-76
2022/12/20 07:23:25;;;;;;;3.97;3.07;;;10.40;99.90;;;;;;5053513;28;20171;-76
2022/12/20 07:25:58;;;;;;;4.20;3.50;;;10.40;99.90;;;;;;5052880;28;20425;-76
2022/12/20 07:28:26;;;;;;;5.80;3.77;;;10.30;99.90;;;;;;5053244;28;20200;-76
2022/12/20 07:30:52;;;;;;;4.80;3.60;;;10.20;99.90;;;;;;5053106;28;20457;-76
2022/12/20 07:33:17;;;;;;;3.33;2.90;;;10.20;99.90;;;;;;5053843;28;20791;-75
2022/12/20 07:35:44;;;;;;;8.23;3.10;;;10.00;99.90;;;;;;5052759;28;20423;-76
2022/12/20 07:38:10;;;;;;;4.27;3.20;;;10.00;99.90;;;;;;5051536;28;20229;-76
2022/12/20 07:40:40;;;;;;;5.77;3.53;;;10.00;99.90;;;;;;5052857;28;20914;-76
2022/12/20 07:43:05;;;;;;;3.90;3.17;;;9.90;99.90;;;;;;5052984;28;20436;-76
2022/12/20 07:45:31;;;;;;;9.43;4.30;;;10.00;99.90;;;;;;5052446;28;20499;-76
2022/12/20 07:47:56;;;;;;;5.47;3.80;;;10.00;99.90;;;;;;5052821;28;20662;-76
2022/12/20 07:50:23;;;;;;;4.77;3.33;;;10.00;99.90;;;;;;5052842;28;20190;-76
2022/12/20 07:52:50;;;;;;;6.67;3.30;;;10.10;99.90;;;;;;5052820;28;20195;-76
2022/12/20 07:55:16;;;;;;;4.43;2.80;;;10.10;99.90;;;;;;5052271;28;20432;-76
2022/12/20 07:57:47;;;;;;;4.60;3.37;;;10.20;99.90;;;;;;5051426;28;20413;-76
2022/12/20 08:00:14;;;;;;;2.70;2.43;;;10.20;99.90;;;;;;5051326;28;20421;-76
2022/12/20 08:02:47;;;;;;;5.20;2.20;;;10.30;99.90;;;;;;5051386;28;20510;-76
2022/12/20 08:05:13;;;;;;;4.20;1.80;;;10.50;99.90;;;;;;5042261;28;20430;-76
2022/12/20 08:07:41;;;;;;;6.30;2.43;;;10.60;99.90;;;;;;5032580;28;20468;-76
2022/12/20 08:10:10;;;;;;;2.00;1.60;;;10.70;99.90;;;;;;5031430;28;20414;-76
2022/12/20 08:12:37;;;;;;;3.13;1.90;;;10.80;99.90;;;;;;5032468;28;20493;-76
2022/12/20 08:15:03;;;;;;;3.57;1.80;;;11.00;99.90;;;;;;5030820;28;21190;-76
2022/12/20 08:17:28;;;;;;;2.00;1.47;;;11.10;99.90;;;;;;5031229;28;20413;-76
2022/12/20 08:19:56;;;;;;;4.30;1.70;;;11.30;99.90;;;;;;5055402;28;20412;-76
2022/12/20 08:22:21;;;;;;;2.00;1.67;;;11.40;99.90;;;;;;5054823;28;20228;-76
2022/12/20 08:24:47;;;;;;;1.73;1.23;;;11.40;99.90;;;;;;5051814;28;20437;-76
2022/12/20 08:27:14;;;;;;;5.10;2.20;;;11.50;99.90;;;;;;5052041;28;20506;-76
2022/12/20 08:29:39;;;;;;;2.63;1.80;;;11.60;99.90;;;;;;5052150;28;20258;-76
2022/12/20 08:32:05;;;;;;;3.73;1.60;;;11.60;99.90;;;;;;5050840;28;20445;-76
2022/12/20 08:34:31;;;;;;;1.97;1.67;;;11.70;99.90;;;;;;5050545;28;20193;-76
2022/12/20 08:36:56;;;;;;;1.53;1.23;;;11.70;99.90;;;;;;5050820;28;20167;-76
2022/12/20 08:39:22;;;;;;;1.90;1.40;;;11.80;99.90;;;;;;5051976;28;20167;-76
2022/12/20 08:41:48;;;;;;;2.63;1.33;;;11.80;99.90;;;;;;5051943;28;20179;-76
2022/12/20 08:44:13;;;;;;;2.33;1.60;;;11.80;99.90;;;;;;5051675;28;20869;-76
2022/12/20 08:46:39;;;;;;;2.43;1.47;;;11.80;99.90;;;;;;5051947;28;20629;-76
2022/12/20 08:49:05;;;;;;;1.70;1.43;;;11.90;99.90;;;;;;5050644;28;20695;-76
2022/12/20 08:51:31;;;;;;;5.07;1.90;;;11.80;99.90;;;;;;5051872;28;20174;-76
2022/12/20 08:53:56;;;;;;;3.17;1.77;;;11.80;99.90;;;;;;5051757;28;20424;-76
2022/12/20 08:56:23;;;;;;;4.50;1.40;;;11.90;99.90;;;;;;5051482;28;20424;-76
2022/12/20 08:58:48;;;;;;;3.10;1.30;;;11.90;99.90;;;;;;5052465;28;20177;-77
2022/12/20 09:01:17;;;;;;;1.80;1.30;;;11.80;99.90;;;;;;5050934;28;20413;-76
2022/12/20 09:03:44;;;;;;;2.30;1.67;;;11.80;99.90;;;;;;5051765;28;20175;-76
2022/12/20 09:06:17;;;;;;;2.83;1.57;;;11.80;99.90;;;;;;5032485;28;20421;-76
2022/12/20 09:08:42;;;;;;;2.13;1.70;;;11.90;99.90;;;;;;5030456;28;20450;-76
2022/12/20 09:11:19;;;;;;;2.63;2.43;;;11.90;99.90;;;;;;5031761;28;20403;-76
2022/12/20 09:13:47;;;;;;;1.60;1.40;;;12.00;99.90;;;;;;5031831;28;20577;-76
2022/12/20 09:16:15;;;;;;;1.87;1.73;;;11.90;99.90;;;;;;5031461;28;20485;-76
2022/12/20 09:18:40;;;;;;;8.50;1.50;;;12.00;99.90;;;;;;5031736;28;20442;-76
2022/12/20 09:21:07;;;;;;;2.50;1.50;;;12.00;99.90;;;;;;5031785;28;20449;-76
2022/12/20 09:23:34;;;;;;;1.97;1.70;;;11.90;99.90;;;;;;5031082;28;20180;-76
2022/12/20 09:26:02;;;;;;;2.50;1.40;;;11.90;99.90;;;;;;5030041;28;20438;-76
2022/12/20 09:28:28;;;;;;;1.70;1.40;;;12.00;99.90;;;;;;5031527;28;20458;-74
2022/12/20 09:31:01;;;;;;;3.27;1.63;;;12.00;99.90;;;;;;5046941;28;20416;-76
2022/12/20 09:33:28;;;;;;;4.57;1.73;;;12.00;99.90;;;;;;5057577;28;20406;-76
2022/12/20 09:35:53;;;;;;;1.50;1.10;;;12.10;99.90;;;;;;5051080;28;20436;-76
2022/12/20 09:38:19;;;;;;;2.50;1.63;;;12.10;99.90;;;;;;5051415;28;20441;-76
2022/12/20 09:40:48;;;;;;;1.73;1.20;;;12.20;99.90;;;;;;5051352;28;20206;-76
2022/12/20 09:43:15;;;;;;;2.33;1.43;;;12.20;99.90;;;;;;5051396;28;20202;-76
2022/12/20 09:45:42;;;;;;;3.10;1.83;;;12.20;99.90;;;;;;5049923;28;20502;-76
2022/12/20 09:48:21;;;;;;;2.27;1.47;;;12.20;99.90;;;;;;5051497;28;20455;-76
2022/12/20 09:51:06;;;;;;;1.67;1.43;;;12.40;99.90;;;;;;5051543;28;20397;-76
2022/12/20 09:53:56;;;;;;;2.40;1.50;;;12.40;99.90;;;;;;5050827;28;20496;-76
2022/12/20 09:56:45;;;;;;;1.77;1.60;;;12.30;99.90;;;;;;5050924;28;20439;-76
2022/12/20 09:59:13;;;;;;;2.90;1.87;;;12.20;99.90;;;;;;5051344;28;20421;-76
2022/12/20 10:01:43;;;;;;;1.37;1.20;;;12.20;99.90;;;;;;5053063;28;20496;-76
2022/12/20 10:04:24;;;;;;;5.47;2.43;;;12.10;99.90;;;;;;5053266;28;20420;-76
2022/12/20 10:07:05;;;;;;;3.37;2.30;;;12.00;99.90;;;;;;5034835;28;20464;-75
2022/12/20 10:10:05;;;;;;;2.53;1.90;;;11.90;99.90;;;;;;5034606;28;20399;-76
2022/12/20 10:12:54;;;;;;;3.10;2.07;;;11.90;99.90;;;;;;5027317;28;20421;-76
2022/12/20 10:15:40;;;;;;;1.80;1.60;;;11.90;99.90;;;;;;5033184;28;20526;-76
2022/12/20 10:18:17;;;;;;;4.50;1.77;;;11.80;99.90;;;;;;5032994;28;20414;-76
2022/12/20 10:21:03;;;;;;;8.63;2.53;;;11.80;99.90;;;;;;5034698;28;20448;-76
2022/12/20 10:23:36;;;;;;;3.00;2.10;;;11.80;99.90;;;;;;5034263;28;20438;-76
2022/12/20 10:26:08;;;;;;;2.10;1.90;;;11.80;99.90;;;;;;5033965;28;20414;-76
2022/12/20 10:28:34;;;;;;;4.80;3.07;;;11.90;99.90;;;;;;5034144;28;20480;-76
2022/12/20 10:31:11;;;;;;;6.57;2.60;;;12.00;99.90;;;;;;5032742;28;20407;-76
2022/12/20 10:33:36;;;;;;;5.13;2.13;;;12.10;99.90;;;;;;5032794;28;20414;-76
2022/12/20 10:36:27;;;;;;;6.43;2.67;;;12.10;99.90;;;;;;5033856;28;20858;-76
2022/12/20 10:38:58;;;;;;;4.30;2.70;;;12.10;99.90;;;;;;5034034;28;20254;-76
2022/12/20 10:41:26;;;;;;;6.87;2.70;;;12.20;99.90;;;;;;5035848;28;20473;-76
2022/12/20 10:44:05;;;;;;;4.17;2.47;;;12.20;99.90;;;;;;5064941;28;20985;-76
2022/12/20 10:46:37;;;;;;;4.40;2.77;;;12.20;99.90;;;;;;5053691;28;20898;-76
2022/12/20 10:49:20;;;;;;;3.30;2.40;;;12.10;99.90;;;;;;5053645;28;20461;-76
2022/12/20 10:51:54;;;;;;;3.37;2.40;;;12.10;99.90;;;;;;5053818;28;20789;-76
2022/12/20 10:54:27;;;;;;;3.80;2.93;;;12.10;99.90;;;;;;5053133;28;20433;-76
2022/12/20 10:56:58;;;;;;;3.17;1.80;;;12.10;99.90;;;;;;5053760;28;20480;-76
2022/12/20 10:59:36;;;;;;;6.67;2.50;;;12.20;99.90;;;;;;5053615;28;20402;-76
2022/12/20 11:02:25;;;;;;;3.50;2.10;;;12.20;99.90;;;;;;5053604;28;20809;-76
2022/12/20 11:05:17;;;;;;;5.30;2.93;;;12.20;99.90;;;;;;5038289;28;20422;-76
2022/12/20 11:07:58;;;;;;;3.70;2.37;;;12.10;99.90;;;;;;5033611;28;20866;-76
2022/12/20 11:10:27;;;;;;;3.77;2.70;;;12.20;99.90;;;;;;5033343;28;20400;-76
2022/12/20 11:12:58;;;;;;;3.67;2.43;;;12.10;99.90;;;;;;5032821;28;20426;-76
2022/12/20 11:15:35;;;;;;;3.07;2.17;;;12.10;99.90;;;;;;5033142;28;20788;-76
2022/12/20 11:18:29;;;;;;;4.67;2.93;;;12.00;99.90;;;;;;5033342;28;20401;-76
2022/12/20 11:20:57;;;;;;;2.13;1.83;;;12.10;99.90;;;;;;5014023;28;20855;-77
2022/12/20 11:23:40;;;;;;;3.00;2.30;;;11.90;99.90;;;;;;5032245;28;20406;-76
2022/12/20 11:26:30;;;;;;;4.63;2.70;;;11.90;99.90;;;;;;5031666;28;20417;-76
2022/12/20 11:28:56;;;;;;;3.37;1.97;;;11.90;99.90;;;;;;5033144;28;20469;-76
2022/12/20 11:31:46;;;;;;;3.60;2.10;;;12.10;99.90;;;;;;5031855;28;20923;-76
2022/12/20 11:34:42;;;;;;;2.90;2.20;;;12.20;99.90;;;;;;5032962;28;20234;-76
2022/12/20 11:37:30;;;;;;;2.77;1.90;;;12.30;99.90;;;;;;5033070;28;20422;-76
2022/12/20 11:40:13;;;;;;;3.80;1.87;;;12.40;99.90;;;;;;5032982;28;20417;-76
2022/12/20 11:43:16;;;;;;;1.83;1.37;;;12.50;99.90;;;;;;5033063;28;20452;-76
2022/12/20 11:46:27;;;;;;;4.53;1.30;;;12.60;99.90;;;;;;5030807;28;20986;-76
2022/12/20 11:49:26;;;;;;;1.70;1.20;;;12.80;99.90;;;;;;5024079;28;20472;-76
2022/12/20 11:52:05;;;;;;;2.40;1.40;;;12.90;99.90;;;;;;5031420;28;20429;-76
2022/12/20 11:54:41;;;;;;;1.70;1.23;;;12.90;99.90;;;;;;5050675;28;20425;-76
2022/12/20 11:57:15;;;;;;;3.57;1.50;;;12.90;99.90;;;;;;5071940;28;20440;-76
2022/12/20 11:59:49;;;;;;;2.43;1.63;;;12.90;99.90;;;;;;5072338;28;20400;-76
2022/12/20 12:02:21;;;;;;;3.20;0.90;;;13.00;99.90;;;;;;5072410;28;20399;-76
2022/12/20 12:04:55;;;;;;;2.23;1.80;;;13.00;99.90;;;;;;5065689;28;20413;-76
2022/12/20 12:07:26;;;;;;;2.23;1.47;;;13.00;99.90;;;;;;5051157;28;20448;-76
2022/12/20 12:10:03;;;;;;;3.80;2.20;;;13.00;99.90;;;;;;5052318;28;20887;-76
2022/12/20 12:13:01;;;;;;;2.87;1.80;;;13.00;99.90;;;;;;5052279;28;20493;-76
2022/12/20 12:15:30;;;;;;;2.10;1.43;;;12.90;99.90;;;;;;5046623;28;20483;-76
2022/12/20 12:18:22;;;;;;;1.90;1.17;;;12.90;99.90;;;;;;5050798;28;20445;-76
2022/12/20 12:21:35;;;;;;;1.60;1.37;;;12.80;99.90;;;;;;5050696;28;20413;-76
2022/12/20 12:24:29;;;;;;;3.80;2.20;;;12.80;99.90;;;;;;5012111;28;20517;-76
2022/12/20 12:26:55;;;;;;;2.50;1.40;;;12.80;99.90;;;;;;5051448;28;20420;-76
2022/12/20 12:29:21;;;;;;;5.13;1.30;;;12.80;99.90;;;;;;5052143;28;20778;-76
2022/12/20 12:31:56;;;;;;;2.30;1.60;;;12.90;99.90;;;;;;5051873;28;20416;-76
2022/12/20 12:34:44;;;;;;;3.20;1.63;;;12.90;99.90;;;;;;5051573;28;20878;-76
2022/12/20 12:37:38;;;;;;;4.47;3.97;;;12.90;99.90;;;;;;5052015;28;20933;-76
2022/12/20 12:40:09;;;;;;;2.33;1.63;;;13.00;99.90;;;;;;5051712;28;20404;-76
2022/12/20 12:43:23;;;;;;;2.80;1.53;;;13.10;99.90;;;;;;5052079;28;20976;-76
2022/12/20 12:45:51;;;;;;;4.40;1.63;;;13.10;99.90;;;;;;5046453;28;20429;-76
2022/12/20 12:48:17;;;;;;;4.40;1.37;;;13.00;99.90;;;;;;5051632;28;20449;-76
2022/12/20 12:50:46;;;;;;;2.93;1.27;;;13.00;99.90;;;;;;5050327;28;20467;-77
2022/12/20 12:53:42;;;;;;;2.13;1.57;;;13.10;99.90;;;;;;5051885;28;20596;-77
2022/12/20 12:56:39;;;;;;;2.63;1.27;;;13.10;99.90;;;;;;5054541;28;20436;-75
2022/12/20 12:59:04;;;;;;;2.20;1.50;;;13.10;99.90;;;;;;5049946;28;20418;-77
2022/12/20 13:02:16;;;;;;;2.23;1.30;;;13.10;99.90;;;;;;5065691;28;20413;-77
2022/12/20 13:05:09;;;;;;;1.57;1.07;;;13.20;99.90;;;;;;5047708;28;20199;-77
2022/12/20 13:08:18;;;;;;;3.50;1.50;;;13.30;99.90;;;;;;5033802;28;20469;-77
2022/12/20 13:11:04;;;;;;;2.80;1.17;;;13.30;99.90;;;;;;5033240;28;20525;-77
2022/12/20 13:14:14;;;;;;;2.03;1.10;;;13.30;99.90;;;;;;5034316;28;20930;-77
2022/12/20 13:17:13;;;;;;;2.70;1.17;;;13.40;99.90;;;;;;5038357;28;20501;-77